Time;durP1;ratioP1;P1;durP2;ratioP2;P2;SDS_P1;SDS_P2;PMS_P1;PMS_P2;Temp;Humidity;BMP_temperature;BMP_pressure;BME280_temperature;BME280_humidity;BME280_pressure;Samples;Min_cycle;Max_cycle;Signal;HPM_P1;HPM_P2
2022/10/25 03:51:05;;;;;;;;;;;21.70;99.90;;;;;;5573318;23;19930;-80
2022/10/25 03:53:32;;;;;;;;;;;21.70;99.90;;;;;;4999317;28;19933;-80
2022/10/25 03:55:58;;;;;;;;;;;21.70;99.90;;;;;;4999013;28;19926;-80
2022/10/25 03:58:25;;;;;;;;;;;21.70;99.90;;;;;;4999951;28;19926;-80
2022/10/25 04:00:52;;;;;;;;;;;21.80;99.90;;;;;;4999164;28;19926;-81
2022/10/25 04:03:18;;;;;;;;;;;21.70;99.90;;;;;;4999125;28;19926;-80
2022/10/25 04:05:45;;;;;;;;;;;21.80;99.90;;;;;;5000712;28;20282;-81
2022/10/25 04:08:13;;;;;;;;;;;21.80;99.90;;;;;;5000340;28;19949;-85
2022/10/25 04:10:39;;;;;;;;;;;21.80;99.90;;;;;;5008825;28;19944;-86
2022/10/25 04:13:06;;;;;;;;;;;21.70;99.90;;;;;;4999929;28;19956;-85
2022/10/25 04:15:32;;;;;;;;;;;22.00;99.90;;;;;;5001975;28;19926;-85
2022/10/25 04:17:59;;;;;;;;;;;21.80;99.90;;;;;;5008646;28;20001;-85
2022/10/25 04:20:25;;;;;;;;;;;21.70;99.90;;;;;;4998938;28;20321;-84
2022/10/25 04:22:53;;;;;;;;;;;21.80;99.90;;;;;;4998385;28;19933;-85
2022/10/25 04:25:20;;;;;;;;;;;21.70;99.90;;;;;;4999497;28;19926;-85
2022/10/25 04:27:47;;;;;;;;;;;21.70;99.90;;;;;;4999707;28;19932;-85
2022/10/25 04:30:14;;;;;;;;;;;21.70;99.90;;;;;;4999997;28;19926;-85
2022/10/25 04:32:40;;;;;;;;;;;21.70;99.90;;;;;;4997422;28;20373;-85
2022/10/25 04:35:07;;;;;;;;;;;21.70;99.90;;;;;;4997610;28;19926;-86
2022/10/25 04:37:34;;;;;;;;;;;21.70;99.90;;;;;;5000202;28;19941;-85
2022/10/25 04:40:00;;;;;;;;;;;21.70;99.90;;;;;;4999558;28;19932;-85
2022/10/25 04:42:28;;;;;;;;;;;21.80;99.90;;;;;;4999339;28;20389;-85
2022/10/25 04:44:55;;;;;;;;;;;21.70;99.90;;;;;;5001285;28;19933;-84
2022/10/25 04:47:21;;;;;;;;;;;21.80;99.90;;;;;;5001908;28;19925;-84
2022/10/25 04:49:48;;;;;;;;;;;21.80;99.90;;;;;;5002755;28;20297;-88
2022/10/25 04:52:14;;;;;;;;;;;21.80;99.90;;;;;;5000781;28;19937;-88
2022/10/25 04:54:41;;;;;;;;;;;21.80;99.90;;;;;;4999302;28;19933;-86
2022/10/25 04:57:08;;;;;;;;;;;21.80;99.90;;;;;;5003732;28;19925;-84
2022/10/25 04:59:35;;;;;;;;;;;21.30;99.90;;;;;;5004319;28;19930;-85
2022/10/25 05:02:02;;;;;;;;;;;21.80;99.90;;;;;;5002126;28;19926;-85
2022/10/25 05:04:29;;;;;;;;;;;21.80;99.90;;;;;;5013299;28;19926;-85
2022/10/25 05:06:55;;;;;;;;;;;21.70;99.90;;;;;;5009061;28;19933;-84
2022/10/25 05:09:22;;;;;;;;;;;21.60;99.90;;;;;;5009964;28;19926;-83
2022/10/25 14:12:41;;;;;;;;;;;21.50;99.90;;;;;;5840215;23;20285;-83
2022/10/25 14:15:13;;;;;;;;;;;21.50;99.90;;;;;;5000738;28;19948;-83
2022/10/25 14:17:41;;;;;;;;;;;21.50;99.90;;;;;;5001218;28;20341;-83
2022/10/25 14:20:09;;;;;;;;;;;21.50;99.90;;;;;;5001338;28;19933;-83
2022/10/25 14:22:37;;;;;;;;;;;21.50;99.90;;;;;;5001537;28;19926;-83
2022/10/25 14:25:05;;;;;;;;;;;21.50;99.90;;;;;;5000981;28;19925;-83
2022/10/25 14:27:33;;;;;;;;;;;21.50;99.90;;;;;;5000366;28;19926;-82
2022/10/25 14:30:20;;;;;;;;;;;21.50;99.90;;;;;;4999607;28;19925;-82
2022/10/25 14:32:51;;;;;;;;;;;21.50;99.90;;;;;;4999004;28;19926;-83
2022/10/25 14:35:17;;;;;;;;;;;21.50;99.90;;;;;;4999153;28;19930;-84
2022/10/25 14:37:44;;;;;;;;;;;21.50;99.90;;;;;;4999031;28;19932;-84
2022/10/25 14:40:20;;;;;;;;;;;21.50;99.90;;;;;;4999963;28;19933;-85
2022/10/25 14:42:47;;;;;;;;;;;21.50;99.90;;;;;;5000088;28;19936;-85
2022/10/25 14:45:19;;;;;;;;;;;21.50;99.90;;;;;;5001149;28;19926;-85
2022/10/25 14:47:45;;;;;;;;;;;21.50;99.90;;;;;;5001799;28;19925;-85
2022/10/25 14:50:13;;;;;;;;;;;21.50;99.90;;;;;;5001791;28;19949;-85
2022/10/25 14:52:42;;;;;;;;;;;21.50;99.90;;;;;;4999832;28;19926;-85
2022/10/25 14:55:16;;;;;;;;;;;21.50;99.90;;;;;;5000153;28;20332;-85
2022/10/25 14:57:43;;;;;;;;;;;21.50;99.90;;;;;;4999502;28;20297;-84
2022/10/25 15:00:17;;;;;;;;;;;21.60;99.90;;;;;;5000858;28;19932;-84
2022/10/25 15:02:47;;;;;;;;;;;21.50;99.90;;;;;;4999734;28;19926;-84
2022/10/25 15:05:16;;;;;;;;;;;21.60;99.90;;;;;;5001736;28;19981;-85
2022/10/25 15:07:44;;;;;;;;;;;21.60;99.90;;;;;;5000698;28;19926;-86
2022/10/25 15:10:27;;;;;;;;;;;21.60;99.90;;;;;;5000363;28;20374;-87
2022/10/25 15:12:55;;;;;;;;;;;21.60;99.90;;;;;;5000943;28;19981;-85
2022/10/25 15:15:26;;;;;;;;;;;21.60;99.90;;;;;;5000075;28;19933;-86
2022/10/25 15:17:55;;;;;;;;;;;21.60;99.90;;;;;;5000979;28;19972;-87
2022/10/25 15:20:28;;;;;;;;;;;21.60;99.90;;;;;;5000740;28;19926;-87
2022/10/25 15:23:01;;;;;;;;;;;21.50;99.90;;;;;;5000311;28;19934;-86
2022/10/25 15:25:29;;;;;;;;;;;21.50;99.90;;;;;;5000506;28;20025;-87
2022/10/25 15:27:57;;;;;;;;;;;21.50;99.90;;;;;;4999859;28;19925;-86
2022/10/25 15:30:34;;;;;;;;;;;21.50;99.90;;;;;;5000004;28;19929;-86
2022/10/25 15:33:04;;;;;;;;;;;21.50;99.90;;;;;;5000734;28;19933;-85
2022/10/25 15:35:32;;;;;;;;;;;21.50;99.90;;;;;;5000109;28;20020;-85
2022/10/25 15:37:59;;;;;;;;;;;21.50;99.90;;;;;;5000520;28;20369;-85
2022/10/25 15:40:26;;;;;;;;;;;21.50;99.90;;;;;;5001159;28;19930;-85
2022/10/25 15:42:52;;;;;;;;;;;21.50;99.90;;;;;;4996859;28;19926;-86
2022/10/25 15:45:19;;;;;;;;;;;21.50;99.90;;;;;;4997315;28;19929;-86
2022/10/25 15:47:46;;;;;;;;;;;21.30;99.90;;;;;;4998327;28;19926;-86
2022/10/25 15:50:15;;;;;;;;;;;21.50;99.90;;;;;;4998807;28;19930;-86
2022/10/25 15:52:42;;;;;;;;;;;21.50;99.90;;;;;;4998755;28;19933;-86
2022/10/25 15:55:16;;;;;;;;;;;21.50;99.90;;;;;;4998489;28;19930;-86
2022/10/25 15:57:42;;;;;;;;;;;21.50;99.90;;;;;;4998410;28;19926;-86
2022/10/25 16:00:13;;;;;;;;;;;21.50;99.90;;;;;;4998930;28;19933;-86
2022/10/25 16:02:39;;;;;;;;;;;21.50;99.90;;;;;;4999490;28;19926;-86
2022/10/25 16:05:06;;;;;;;;;;;21.50;99.90;;;;;;5000117;28;19926;-86
2022/10/25 16:07:34;;;;;;;;;;;21.50;99.90;;;;;;4998454;28;19925;-86
2022/10/25 16:10:01;;;;;;;;;;;21.50;99.90;;;;;;4998172;28;19925;-83
2022/10/25 16:12:30;;;;;;;;;;;21.50;99.90;;;;;;4998361;28;19932;-83
2022/10/25 16:14:57;;;;;;;;;;;21.50;99.90;;;;;;4998988;28;19926;-83
2022/10/25 16:17:24;;;;;;;;;;;21.50;99.90;;;;;;5001249;28;20285;-83
2022/10/25 16:19:50;;;;;;;;;;;21.50;99.90;;;;;;5002579;28;20344;-85
2022/10/25 16:22:17;;;;;;;;;;;21.40;99.90;;;;;;5002284;28;19930;-86
2022/10/25 16:24:45;;;;;;;;;;;21.50;99.90;;;;;;5004112;28;19925;-85
2022/10/25 16:27:11;;;;;;;;;;;21.40;99.90;;;;;;5003603;28;19926;-85
2022/10/25 16:29:38;;;;;;;;;;;21.40;99.90;;;;;;5002443;28;19926;-86
2022/10/25 16:32:05;;;;;;;;;;;21.50;99.90;;;;;;5003229;28;19949;-85
2022/10/25 16:34:32;;;;;;;;;;;21.50;99.90;;;;;;4998864;28;19933;-85
2022/10/25 16:36:58;;;;;;;;;;;21.40;99.90;;;;;;5003447;28;19936;-86
2022/10/25 16:39:25;;;;;;;;;;;21.50;99.90;;;;;;5003064;28;19925;-83
2022/10/25 16:41:55;;;;;;;;;;;21.40;99.90;;;;;;5003561;28;19933;-85
2022/10/25 16:44:22;;;;;;;;;;;21.50;99.90;;;;;;5005996;28;20263;-85
2022/10/25 16:46:48;;;;;;;;;;;21.50;99.90;;;;;;5002996;28;19926;-87
2022/10/25 16:49:15;;;;;;;;;;;21.80;99.90;;;;;;4998900;28;19933;-87
2022/10/25 16:51:43;;;;;;;;;;;21.40;99.90;;;;;;4999177;28;19980;-86
2022/10/25 16:54:10;;;;;;;;;;;21.50;99.90;;;;;;5001446;28;19936;-86
2022/10/25 16:56:38;;;;;;;;;;;21.40;99.90;;;;;;4998792;28;19938;-86
2022/10/25 16:59:06;;;;;;;;;;;21.50;99.90;;;;;;4997640;28;19948;-87
2022/10/25 17:01:34;;;;;;;;;;;21.40;99.90;;;;;;4996823;28;19930;-87
2022/10/25 17:04:01;;;;;;;;;;;21.40;99.90;;;;;;4997322;28;19932;-87
2022/10/25 17:06:27;;;;;;;;;;;21.70;99.90;;;;;;5002462;28;19925;-87
2022/10/25 17:08:54;;;;;;;;;;;21.50;99.90;;;;;;4998587;28;20309;-86
2022/10/25 17:11:21;;;;;;;;;;;21.60;99.90;;;;;;4999051;28;19926;-86
2022/10/25 17:13:47;;;;;;;;;;;21.50;99.90;;;;;;4999840;28;19926;-86
2022/10/25 17:16:15;;;;;;;;;;;21.50;99.90;;;;;;4998101;28;19933;-86
2022/10/25 17:18:42;;;;;;;;;;;21.30;99.90;;;;;;4999864;28;19932;-86
2022/10/25 17:21:09;;;;;;;;;;;21.50;99.90;;;;;;5001745;28;19926;-86
2022/10/25 17:23:36;;;;;;;;;;;21.50;99.90;;;;;;5001118;28;19977;-86
2022/10/25 17:26:03;;;;;;;;;;;21.60;99.90;;;;;;4999434;28;20382;-86
2022/10/25 17:28:31;;;;;;;;;;;21.50;99.90;;;;;;4998535;28;19926;-87
2022/10/25 17:30:57;;;;;;;;;;;20.80;99.90;;;;;;4996580;28;20378;-87
2022/10/25 17:33:25;;;;;;;;;;;21.30;99.90;;;;;;4996757;28;19926;-86
2022/10/25 17:35:53;;;;;;;;;;;21.50;99.90;;;;;;5001174;28;19926;-86
2022/10/25 17:38:20;;;;;;;;;;;21.60;99.90;;;;;;5004061;28;19926;-85
2022/10/25 17:40:46;;;;;;;;;;;20.90;99.90;;;;;;4999017;28;19925;-87
2022/10/25 17:43:15;;;;;;;;;;;21.50;99.90;;;;;;4997065;28;21188;-87
2022/10/25 17:45:42;;;;;;;;;;;20.70;99.90;;;;;;4998443;28;20432;-86
2022/10/25 17:48:09;;;;;;;;;;;21.60;99.90;;;;;;4997386;28;19930;-87
2022/10/25 17:50:39;;;;;;;;;;;21.60;99.90;;;;;;4997815;28;19933;-86
2022/10/25 17:53:07;;;;;;;;;;;21.60;99.90;;;;;;4998762;28;19930;-86
2022/10/25 17:55:34;;;;;;;;;;;21.60;99.90;;;;;;4999524;28;19925;-87
2022/10/25 17:58:00;;;;;;;;;;;21.60;99.90;;;;;;5000823;28;19926;-85
2022/10/25 18:00:27;;;;;;;;;;;21.50;99.90;;;;;;4997870;28;19925;-86
2022/10/25 18:02:54;;;;;;;;;;;21.60;99.90;;;;;;4998746;28;19964;-86
2022/10/25 18:05:20;;;;;;;;;;;22.50;99.90;;;;;;4998834;28;19925;-86
2022/10/25 18:07:49;;;;;;;;;;;21.80;99.90;;;;;;4998991;28;19929;-85
2022/10/25 18:10:15;;;;;;;;;;;21.60;99.90;;;;;;4998655;28;19930;-86
2022/10/25 18:12:42;;;;;;;;;;;21.60;99.90;;;;;;4999279;28;19926;-86
2022/10/25 18:15:09;;;;;;;;;;;21.60;99.90;;;;;;4999117;28;19933;-86
2022/10/25 18:17:35;;;;;;;;;;;21.60;99.90;;;;;;5002561;28;19925;-86
2022/10/25 18:20:02;;;;;;;;;;;21.60;99.90;;;;;;4999029;28;20489;-85
2022/10/25 18:22:28;;;;;;;;;;;21.70;99.90;;;;;;5000778;28;19959;-84
2022/10/25 18:24:56;;;;;;;;;;;21.60;99.90;;;;;;5002140;28;19930;-85
2022/10/25 18:27:23;;;;;;;;;;;21.00;99.90;;;;;;5001680;28;19929;-85
2022/10/25 18:29:49;;;;;;;;;;;21.60;99.90;;;;;;5000573;28;19929;-84
2022/10/25 18:32:16;;;;;;;;;;;21.60;99.90;;;;;;4999263;28;19929;-83
2022/10/25 18:34:42;;;;;;;;;;;21.60;99.90;;;;;;5000275;28;19933;-83
2022/10/25 18:37:09;;;;;;;;;;;21.60;99.90;;;;;;4998402;28;19936;-83
2022/10/25 18:39:36;;;;;;;;;;;21.60;99.90;;;;;;4998370;28;19948;-83
2022/10/25 18:42:04;;;;;;;;;;;21.60;99.90;;;;;;4999551;28;19925;-83
2022/10/25 18:44:30;;;;;;;;;;;21.60;99.90;;;;;;4999152;28;19925;-83
2022/10/25 18:46:57;;;;;;;;;;;21.60;99.90;;;;;;4999878;28;19933;-83
2022/10/25 18:49:23;;;;;;;;;;;21.60;99.90;;;;;;4999166;28;19929;-83
2022/10/25 18:51:50;;;;;;;;;;;21.60;99.90;;;;;;4998489;28;20409;-83
2022/10/25 18:54:17;;;;;;;;;;;21.60;99.90;;;;;;4999274;28;19930;-83
2022/10/25 18:56:43;;;;;;;;;;;21.50;99.90;;;;;;4999116;28;20304;-83
2022/10/25 18:59:12;;;;;;;;;;;21.60;99.90;;;;;;4999346;28;19926;-83
2022/10/25 19:01:38;;;;;;;;;;;21.60;99.90;;;;;;4999319;28;19926;-83
2022/10/25 19:04:05;;;;;;;;;;;21.60;99.90;;;;;;4999118;28;19930;-83
2022/10/25 19:06:32;;;;;;;;;;;21.60;99.90;;;;;;4998420;28;19925;-83
2022/10/25 19:08:58;;;;;;;;;;;21.60;99.90;;;;;;4999013;28;19949;-83
2022/10/25 19:11:25;;;;;;;;;;;21.70;99.90;;;;;;4998897;28;19933;-83
2022/10/25 19:13:52;;;;;;;;;;;21.60;99.90;;;;;;4998786;28;20305;-83
2022/10/25 19:16:20;;;;;;;;;;;21.60;99.90;;;;;;4998839;28;19925;-83
2022/10/25 19:18:47;;;;;;;;;;;21.60;99.90;;;;;;4998765;28;19926;-83
2022/10/25 19:21:15;;;;;;;;;;;21.60;99.90;;;;;;4998493;28;19933;-83
2022/10/25 19:23:44;;;;;;;;;;;21.60;99.90;;;;;;4999673;28;20329;-86
2022/10/25 19:26:13;;;;;;;;;;;21.50;99.90;;;;;;4999871;28;20402;-83
2022/10/25 19:28:39;;;;;;;;;;;21.60;99.90;;;;;;4998870;28;19933;-83
2022/10/25 19:31:06;;;;;;;;;;;21.60;99.90;;;;;;4997967;28;19926;-83
2022/10/25 19:33:34;;;;;;;;;;;21.60;99.90;;;;;;4998339;28;20297;-83
2022/10/25 19:36:01;;;;;;;;;;;21.60;99.90;;;;;;4999167;28;19936;-84
2022/10/25 19:38:28;;;;;;;;;;;21.60;99.90;;;;;;4998741;28;19932;-84
2022/10/25 19:40:58;;;;;;;;;;;21.60;99.90;;;;;;4998052;28;19926;-84
2022/10/25 19:43:24;;;;;;;;;;;21.60;99.90;;;;;;4998050;28;19933;-83
2022/10/25 19:45:51;;;;;;;;;;;21.60;99.90;;;;;;4998314;28;19929;-83
2022/10/25 19:48:17;;;;;;;;;;;21.60;99.90;;;;;;4997585;28;19933;-83
2022/10/25 19:50:47;;;;;;;;;;;21.50;99.90;;;;;;5000754;28;19925;-83
2022/10/25 19:53:13;;;;;;;;;;;21.60;99.90;;;;;;5002260;28;19926;-83
2022/10/25 19:55:40;;;;;;;;;;;21.60;99.90;;;;;;5002224;28;19937;-83
2022/10/25 19:58:07;;;;;;;;;;;21.60;99.90;;;;;;5001459;28;19925;-83
2022/10/25 20:00:33;;;;;;;;;;;21.60;99.90;;;;;;5001287;28;20377;-83
2022/10/25 20:03:00;;;;;;;;;;;21.50;99.90;;;;;;5001458;28;19933;-83
2022/10/25 20:05:28;;;;;;;;;;;21.60;99.90;;;;;;5001161;28;20341;-83
2022/10/25 20:07:56;;;;;;;;;;;21.50;99.90;;;;;;5002479;28;19984;-84
2022/10/25 20:10:24;;;;;;;;;;;21.50;99.90;;;;;;5002635;28;19926;-84
2022/10/25 20:12:51;;;;;;;;;;;21.50;99.90;;;;;;5002527;28;19936;-84
2022/10/25 20:15:18;;;;;;;;;;;21.60;99.90;;;;;;5003736;28;19977;-83
2022/10/25 20:17:44;;;;;;;;;;;21.50;99.90;;;;;;5002960;28;19933;-83
2022/10/25 20:20:11;;;;;;;;;;;21.50;99.90;;;;;;5002934;28;19925;-83
2022/10/25 20:22:38;;;;;;;;;;;21.50;99.90;;;;;;5002628;28;20290;-84
2022/10/25 20:25:06;;;;;;;;;;;21.50;99.90;;;;;;5002403;28;19949;-83
2022/10/25 20:27:33;;;;;;;;;;;21.50;99.90;;;;;;5001620;28;19926;-82
2022/10/25 20:30:00;;;;;;;;;;;21.50;99.90;;;;;;5001509;28;20305;-82
2022/10/25 20:32:26;;;;;;;;;;;21.50;99.90;;;;;;5001527;28;20301;-83
2022/10/25 20:34:53;;;;;;;;;;;21.50;99.90;;;;;;5000736;28;20271;-81
2022/10/25 20:37:19;;;;;;;;;;;21.50;99.90;;;;;;5001036;28;19926;-82
2022/10/25 20:39:46;;;;;;;;;;;21.50;99.90;;;;;;5021909;23;20301;-74
2022/10/25 20:42:16;;;;;;;;;;;21.50;99.90;;;;;;4997109;28;19932;-74
2022/10/25 20:44:43;;;;;;;;;;;21.50;99.90;;;;;;4996778;28;20373;-74
2022/10/25 20:47:09;;;;;;;;;;;21.50;99.90;;;;;;4996999;28;19929;-74
2022/10/25 20:49:36;;;;;;;;;;;21.50;99.90;;;;;;4996901;28;20297;-74
2022/10/25 20:52:02;;;;;;;;;;;21.50;99.90;;;;;;4996953;28;19925;-74
2022/10/25 20:54:29;;;;;;;;;;;21.50;99.90;;;;;;4996909;28;19930;-74
2022/10/25 20:56:56;;;;;;;;;;;21.50;99.90;;;;;;4996870;28;19925;-74
2022/10/25 20:59:23;;;;;;;;;;;21.50;99.90;;;;;;4996796;28;19926;-76
2022/10/25 21:01:50;;;;;;;;;;;21.50;99.90;;;;;;4995840;28;19925;-76
2022/10/25 21:04:16;;;;;;;;;;;21.50;99.90;;;;;;4996686;28;19930;-76
2022/10/25 21:06:43;;;;;;;;;;;21.50;99.90;;;;;;4996654;28;19925;-77
2022/10/25 21:09:10;;;;;;;;;;;21.50;99.90;;;;;;4997248;28;19926;-78
2022/10/25 21:11:36;;;;;;;;;;;21.50;99.90;;;;;;4997030;28;19933;-78
2022/10/25 21:14:03;;;;;;;;;;;21.50;99.90;;;;;;4996936;28;19949;-79
2022/10/25 21:16:31;;;;;;;;;;;21.50;99.90;;;;;;4996678;28;19926;-79
2022/10/25 21:19:01;;;;;;;;;;;21.50;99.90;;;;;;4996834;28;19933;-78
2022/10/25 21:21:28;;;;;;;;;;;21.50;99.90;;;;;;4996239;28;19933;-78
2022/10/25 21:23:55;;;;;;;;;;;21.50;99.90;;;;;;4996160;28;19926;-78
2022/10/25 21:26:22;;;;;;;;;;;21.50;99.90;;;;;;4996653;28;19930;-78
2022/10/25 21:28:48;;;;;;;;;;;21.50;99.90;;;;;;4996491;28;19940;-79
2022/10/25 21:31:15;;;;;;;;;;;21.50;99.90;;;;;;4996192;28;20395;-78
2022/10/25 21:33:46;;;;;;;;;;;21.50;99.90;;;;;;4996503;28;19936;-78
2022/10/25 21:36:14;;;;;;;;;;;21.50;99.90;;;;;;4996293;28;19926;-78
2022/10/25 21:38:41;;;;;;;;;;;21.50;99.90;;;;;;4996054;28;19933;-78
2022/10/25 21:41:09;;;;;;;;;;;21.50;99.90;;;;;;4995872;28;20408;-78
2022/10/25 21:43:36;;;;;;;;;;;21.50;99.90;;;;;;4996090;28;19930;-78
2022/10/25 21:46:06;;;;;;;;;;;21.50;99.90;;;;;;4996127;28;19949;-78
2022/10/25 21:48:32;;;;;;;;;;;21.60;99.90;;;;;;4995937;28;19926;-78
2022/10/25 21:51:00;;;;;;;;;;;21.50;99.90;;;;;;4995966;28;19926;-78
2022/10/25 21:53:27;;;;;;;;;;;21.50;99.90;;;;;;4996072;28;20373;-78
2022/10/25 21:56:02;;;;;;;;;;;21.50;99.90;;;;;;4996245;28;19933;-78
2022/10/25 21:58:29;;;;;;;;;;;21.50;99.90;;;;;;4996098;28;19926;-79
